首页
METAR-TAF:

METAR-TAF

机场 :

Hope, 不列颠哥伦比亚, 加拿大

纬度: 49-22N, 经度: 121-29W, 海拔: 39米

当前天气观测

该预报发布于48分钟前的17:06 UTC
风速7节,风向西转西北
温度 15°C
湿度 88%
气压 1021 hPa
能見度: 14.5公里
散云层高于1900英尺
阴天层高于5000英尺

METAR: CYHE 081706Z AUTO 30007KT 9SM SCT019 OVC050 15/13 A3016 RMK SLP215

时间: 10:54 (17:54 UTC)


TAF: 丢失

超过4000个机场的气象观测和天气预报(METAR&TAF报告)。

可查询的气象台以黄色和红色小点在地图上表示。

将鼠标移到小点上方,可查看气象台名称。

然后点击查看天气观测和预报。

如需切换地图:点击带黑十字的绿色按钮放大地图;点击带横线的绿色按钮缩小地图;或者点击绿色箭头查看邻近地区的地图。


METAR-TAF: